Latest Weather Observations for Wyndham Airport

IDD60801

Issued at 11:05 pm CST Friday 29 August 2014 (issued every 30 minutes, with the page automatically refreshed every 10 minutes)

About weather observations | Map of weather stations | Latest weather observations for NT | Other Formats
Station Details ID: 001006 Name: WYNDHAM AERO Lat: -15.51 Lon: 128.15 Height: 3.8 m
Data from the previous 72 hours. | See also: Recent months for locations in Northern Territory
Date/Time
CST
Temp
°C
App
Temp
°C
Dew
Point
Rel
Hum
%
Delta-T
°C
Wind Press
QNH
hPa
Press
MSL
hPa
Rain
since 9 am
mm
Dir
 
Spd
km/h
Gust
km/h
Spd
kts
Gust
kts
29/11:00pm 18.1 15.7 -2.8 24 8.6 SE 0 9 0 5 1015.2 1015.2 0.0
29/10:30pm 20.7 17.0 -3.0 20 9.9 NNW 7 9 4 5 1015.2 1015.2 0.0
29/10:00pm 20.1 15.7 -2.3 22 9.4 WNW 11 15 6 8 1015.2 1015.2 0.0
29/09:30pm 20.7 16.9 -5.2 17 10.4 WNW 6 11 3 6 1014.8 1014.8 0.0
29/09:00pm 22.5 17.4 -5.4 15 11.3 E 13 15 7 8 1014.5 1014.5 0.0
29/08:30pm 23.9 18.8 -5.2 14 12.0 E 13 15 7 8 1014.2 1014.2 0.0
29/08:00pm 23.2 18.4 -5.7 14 11.7 ESE 11 13 6 7 1013.9 1013.9 0.0
29/07:30pm 25.4 20.6 -6.0 12 13.0 E 11 13 6 7 1013.5 1013.5 0.0
29/07:00pm 27.1 22.2 -7.1 10 14.0 E 11 15 6 8 1013.2 1013.2 0.0
29/06:30pm 29.7 24.5 -6.5 9 15.4 ENE 13 17 7 9 1012.9 1012.9 0.0
29/06:00pm 31.2 25.9 -6.9 8 16.3 ESE 13 20 7 11 1012.8 1012.8 0.0
29/05:30pm 31.8 25.1 -8.2 7 16.8 SE 20 26 11 14 1012.7 1012.7 0.0
29/05:00pm 32.2 27.0 -6.2 8 16.8 E 13 24 7 13 1012.7 1012.7 0.0
29/04:30pm 32.4 26.3 -7.8 7 17.1 S 17 24 9 13 1012.8 1012.8 0.0
29/04:00pm 32.4 28.0 -6.0 8 16.8 SE 9 19 5 10 1012.9 1012.9 0.0
29/03:30pm 32.2 26.2 -6.2 8 16.8 ESE 17 28 9 15 1013.2 1013.2 0.0
29/03:00pm 32.6 26.7 -5.9 8 16.9 ENE 17 32 9 17 1013.3 1013.3 0.0
29/02:30pm 32.4 26.5 -6.0 8 16.8 SE 17 30 9 16 1013.7 1013.7 0.0
29/02:00pm 32.3 26.7 -6.1 8 16.8 E 15 30 8 16 1014.4 1014.4 0.0
29/01:30pm 32.0 25.5 -6.3 8 16.6 E 20 35 11 19 1015.0 1015.0 0.0
29/01:00pm 31.8 25.4 -4.9 9 16.3 ENE 20 28 11 15 1015.7 1015.7 0.0
29/12:30pm 31.2 24.0 -5.4 9 16.0 E 24 33 13 18 1016.0 1016.0 0.0
29/12:00pm 30.9 23.4 -4.2 10 15.7 ESE 26 37 14 20 1016.5 1016.5 0.0
29/11:30am 30.0 21.7 -4.9 10 15.3 E 30 43 16 23 1016.8 1016.8 0.0
29/11:00am 29.8 21.5 -5.1 10 15.2 E 30 41 16 22 1017.3 1017.3 0.0
29/10:30am 29.6 20.9 -5.2 10 15.1 E 32 44 17 24 1017.5 1017.5 0.0
29/10:00am 28.9 19.9 -5.7 10 14.8 E 33 44 18 24 1017.5 1017.5 0.0
29/09:30am 27.5 20.5 -6.8 10 14.2 ESE 22 28 12 15 1017.3 1017.3 0.0
29/09:00am 26.0 21.4 -4.5 13 13.0 ESE 11 19 6 10 1017.2 1017.2 0.0
29/08:30am 22.0 18.3 -4.1 17 10.8 SSW 6 7 3 4 1017.0 1017.0 0.0
29/08:00am 20.4 16.4 -2.0 22 9.5 E 9 11 5 6 1016.6 1016.6 0.0
29/07:57am 20.0 16.1 -1.7 23 9.3 E 9 11 5 6 1016.6 1016.6 0.0
29/07:30am 14.9 12.1 -3.4 28 7.2 NE 2 9 1 5 1016.3 1016.3 0.0
29/07:00am 15.1 12.6 -3.7 27 7.3 CALM 0 0 0 0 1016.0 1016.0 0.0
29/06:30am 14.9 12.5 -3.4 28 7.2 CALM 0 0 0 0 1015.8 1015.8 0.0
29/06:00am 12.6 9.6 -5.4 28 6.6 SSW 2 7 1 4 1015.5 1015.5 0.0
29/05:30am 12.3 8.4 -4.3 31 6.2 E 7 9 4 5 1015.3 1015.3 0.0
29/05:00am 12.4 9.7 -5.6 28 6.5 CALM 0 2 0 1 1015.3 1015.3 0.0
29/04:30am 12.0 9.1 -4.6 31 6.1 ESE 2 6 1 3 1015.1 1015.1 0.0
29/04:00am 11.8 8.9 -4.3 32 6.0 ESE 2 9 1 5 1015.0 1015.0 0.0
29/03:30am 14.3 11.8 -4.4 27 7.1 CALM 0 0 0 0 1015.1 1015.1 0.0
29/03:00am 14.5 12.1 -3.3 29 7.0 CALM 0 0 0 0 1015.2 1015.2 0.0
29/02:30am 13.0 10.5 -3.7 31 6.4 CALM 0 6 0 3 1015.2 1015.2 0.0
29/02:00am 13.0 10.0 -5.5 27 6.8 SSE 2 9 1 5 1015.2 1015.2 0.0
29/01:30am 15.1 11.4 -4.8 25 7.6 N 6 7 3 4 1015.4 1015.4 0.0
29/01:00am 16.6 14.1 -4.0 24 8.1 CALM 0 2 0 1 1015.5 1015.5 0.0
29/12:30am 16.7 13.5 -3.4 25 8.0 WNW 4 9 2 5 1015.4 1015.4 0.0
29/12:00am 16.5 12.5 -5.3 22 8.3 W 7 9 4 5 1015.4 1015.4 0.0
 
Date/Time
CST
Temp
°C
App
Temp
°C
Dew
Point
Rel
Hum
%
Delta-T
°C
Wind Press
QNH
hPa
Press
MSL
hPa
Rain
since 9 am
mm
Dir
 
Spd
km/h
Gust
km/h
Spd
kts
Gust
kts
28/11:30pm 17.0 13.1 -6.8 19 8.8 NW 6 9 3 5 1015.5 1015.5 0.0
28/11:00pm 17.9 15.5 -3.5 23 8.6 CALM 0 7 0 4 1015.5 1015.5 0.0
28/10:30pm 18.8 15.4 -5.3 19 9.4 NNE 4 9 2 5 1015.7 1015.7 0.0
28/10:00pm 21.6 16.6 -8.0 13 11.3 E 11 13 6 7 1015.5 1015.5 0.0
28/09:30pm 21.5 16.1 -8.0 13 11.2 E 13 15 7 8 1015.3 1015.3 0.0
28/09:00pm 21.8 17.2 -7.8 13 11.4 E 9 11 5 6 1015.1 1015.1 0.0
28/08:30pm 22.5 17.5 -8.3 12 11.8 E 11 13 6 7 1014.7 1014.7 0.0
28/08:00pm 23.2 17.8 -8.9 11 12.3 ESE 13 15 7 8 1014.3 1014.3 0.0
28/07:30pm 24.0 18.5 -9.5 10 12.8 ESE 13 15 7 8 1013.9 1013.9 0.0
28/07:00pm 25.8 19.9 -9.4 9 13.7 ESE 15 19 8 10 1013.5 1013.5 0.0
28/06:30pm 29.6 23.0 -9.8 7 15.8 ESE 19 26 10 14 1013.1 1013.1 0.0
28/06:00pm 30.9 24.3 -8.9 7 16.4 E 19 26 10 14 1012.7 1012.7 0.0
28/05:30pm 31.4 24.5 -10.4 6 16.9 ESE 20 32 11 17 1012.5 1012.5 0.0
28/05:00pm 32.0 25.7 -10.0 6 17.2 ESE 17 33 9 18 1012.3 1012.3 0.0
28/04:30pm 32.2 26.7 -9.9 6 17.3 ESE 13 24 7 13 1012.5 1012.5 0.0
28/04:00pm 32.4 26.3 -7.8 7 17.1 SSE 17 28 9 15 1012.8 1012.8 0.0
28/03:30pm 31.9 25.8 -8.1 7 16.9 S 17 26 9 14 1012.9 1012.9 0.0
28/03:00pm 31.9 27.7 -8.1 7 16.9 S 7 11 4 6 1013.2 1013.2 0.0
28/02:30pm 32.1 26.7 -8.0 7 17.0 NE 13 26 7 14 1013.4 1013.4 0.0
28/02:00pm 31.4 24.9 -8.5 7 16.6 ESE 19 30 10 16 1014.1 1014.1 0.0
28/01:30pm 31.9 25.4 -8.1 7 16.8 SE 19 26 10 14 1014.8 1014.8 0.0
28/01:00pm 31.7 23.8 -8.3 7 16.8 ESE 26 32 14 17 1015.3 1015.3 0.0
28/12:30pm 31.3 24.3 -6.8 8 16.3 E 22 35 12 19 1015.8 1015.8 0.0
28/12:00pm 30.6 22.4 -7.4 8 16.0 E 28 37 15 20 1016.4 1016.4 0.0
28/11:30am 29.8 22.1 -6.4 9 15.4 E 26 37 14 20 1016.5 1016.5 0.0
28/11:00am 29.5 21.5 -5.3 10 15.1 E 28 39 15 21 1016.8 1016.8 0.0
28/10:30am 28.8 20.4 -5.8 10 14.7 ESE 30 48 16 26 1017.0 1017.0 0.0
28/10:29am 29.1 21.0 -7.0 9 15.1 E 28 48 15 26 1017.0 1017.0 0.0
28/10:00am 28.8 19.9 -7.2 9 15.0 ESE 32 43 17 23 1017.1 1017.1 0.0
28/09:30am 27.3 18.7 -8.3 9 14.3 ESE 30 39 16 21 1017.0 1017.0 0.0
28/09:00am 26.5 18.6 -8.9 9 14.0 ESE 26 35 14 19 1016.8 1016.8 0.0
28/08:30am 24.9 18.1 -8.8 10 13.1 ESE 20 26 11 14 1016.5 1016.5 0.0
28/08:00am 22.9 16.1 -9.1 11 12.1 E 20 26 11 14 1016.1 1016.1 0.0
28/07:30am 20.9 14.2 -7.6 14 10.9 ESE 20 26 11 14 1015.8 1015.8 0.0
28/07:00am 19.5 13.2 -6.2 17 10.0 ESE 19 26 10 14 1015.6 1015.6 0.0
28/06:30am 16.5 10.7 -4.7 23 8.2 E 17 20 9 11 1015.3 1015.3 0.0
28/06:00am 14.2 9.3 -3.6 29 6.9 E 13 15 7 8 1015.2 1015.2 0.0
28/05:30am 13.9 9.8 -3.4 30 6.7 E 9 11 5 6 1014.9 1014.9 0.0
28/05:00am 13.7 8.8 -3.1 31 6.5 E 13 15 7 8 1014.7 1014.7 0.0
28/04:30am 13.6 8.8 -2.3 33 6.3 E 13 15 7 8 1014.6 1014.6 0.0
28/04:00am 15.0 11.0 -2.4 30 7.0 E 9 11 5 6 1014.6 1014.6 0.0
28/03:30am 15.5 11.1 -2.4 29 7.2 E 11 13 6 7 1014.6 1014.6 0.0
28/03:00am 14.8 10.8 -2.6 30 6.9 ESE 9 11 5 6 1014.6 1014.6 0.0
28/02:30am 15.7 11.3 -2.3 29 7.3 ESE 11 13 6 7 1014.6 1014.6 0.0
28/02:00am 17.5 13.1 -2.7 25 8.2 E 11 11 6 6 1014.5 1014.5 0.0
28/01:30am 15.3 10.9 -2.6 29 7.2 ESE 11 11 6 6 1014.7 1014.7 0.0
28/01:00am 16.0 12.0 -2.0 29 7.3 E 9 11 5 6 1014.9 1014.9 0.0
28/12:30am 16.2 12.2 -2.3 28 7.5 ENE 9 9 5 5 1015.2 1015.2 0.0
28/12:00am 18.0 15.8 -1.3 27 8.1 CALM 0 6 0 3 1015.0 1015.0 0.0
 
Date/Time
CST
Temp
°C
App
Temp
°C
Dew
Point
Rel
Hum
%
Delta-T
°C
Wind Press
QNH
hPa
Press
MSL
hPa
Rain
since 9 am
mm
Dir
 
Spd
km/h
Gust
km/h
Spd
kts
Gust
kts
27/11:30pm 17.6 13.5 -3.2 24 8.4 NW 9 9 5 5 1014.8 1014.8 0.0
27/11:00pm 19.6 16.1 -2.7 22 9.3 NW 6 9 3 5 1014.9 1014.9 0.0
27/10:30pm 18.6 15.9 -2.3 24 8.7 NW 2 7 1 4 1014.9 1014.9 0.0
27/10:00pm 21.1 16.8 -4.9 17 10.5 E 9 11 5 6 1014.9 1014.9 0.0
27/09:30pm 22.7 18.5 -3.6 17 11.1 E 9 11 5 6 1014.8 1014.8 0.0
27/09:00pm 23.1 19.0 -3.3 17 11.2 ENE 9 11 5 6 1014.7 1014.7 0.0
27/08:30pm 23.1 18.1 -4.1 16 11.4 SE 13 15 7 8 1014.3 1014.3 0.0
27/08:00pm 23.9 19.7 -4.3 15 11.8 SE 9 11 5 6 1013.8 1013.8 0.0
27/07:30pm 25.0 20.8 -4.3 14 12.4 ESE 9 11 5 6 1013.3 1013.3 0.0
27/07:00pm 27.9 22.8 -5.2 11 14.2 E 13 19 7 10 1012.8 1012.8 0.0
27/06:30pm 30.2 24.3 -6.1 9 15.6 E 17 20 9 11 1012.4 1012.4 0.0
27/06:00pm 31.4 25.0 -5.2 9 16.1 ESE 20 26 11 14 1012.2 1012.2 0.0
27/05:30pm 32.3 26.9 -4.6 9 16.6 ENE 15 28 8 15 1012.1 1012.1 0.0
27/05:00pm 32.5 26.3 -4.4 9 16.6 E 19 35 10 19 1012.0 1012.0 0.0
27/04:30pm 32.4 26.6 -4.5 9 16.6 E 17 32 9 17 1011.9 1011.9 0.0
27/04:00pm 32.6 25.9 -4.3 9 16.7 ENE 22 32 12 17 1012.0 1012.0 0.0
27/03:30pm 32.4 26.0 -4.5 9 16.6 E 20 30 11 16 1012.4 1012.4 0.0
27/03:00pm 32.5 26.2 -4.4 9 16.6 ESE 20 32 11 17 1012.7 1012.7 0.0
27/02:30pm 32.4 25.3 -4.5 9 16.6 SE 24 39 13 21 1013.0 1013.0 0.0
27/02:00pm 32.7 26.0 -4.3 9 16.7 E 22 35 12 19 1013.2 1013.2 0.0
27/01:30pm 32.0 25.0 -3.4 10 16.2 E 24 44 13 24 1013.8 1013.8 0.0
27/01:00pm 32.2 24.5 -3.2 10 16.3 E 28 39 15 21 1014.5 1014.5 0.0
27/12:30pm 31.7 23.9 -3.6 10 16.0 E 28 43 15 23 1015.1 1015.1 0.0
27/12:00pm 31.4 23.6 -3.8 10 15.9 E 28 39 15 21 1015.7 1015.7 0.0
27/11:30am 31.1 22.3 -4.1 10 15.8 E 33 46 18 25 1016.0 1016.0 0.0
27/11:26am 30.6 21.9 -3.2 11 15.3 E 33 52 18 28 1016.0 1016.0 0.0
27/11:00am 30.2 20.7 -3.5 11 15.2 E 37 50 20 27 1016.3 1016.3 0.0
27/10:30am 29.3 19.9 -3.0 12 14.5 E 37 46 20 25 1016.5 1016.5 0.0
27/10:14am 28.7 19.6 -3.5 12 14.3 E 35 54 19 29 1016.5 1016.5 0.0
27/10:00am 28.2 18.4 -2.8 13 13.9 E 39 52 21 28 1016.4 1016.4 0.0
27/09:30am 27.5 18.4 -3.3 13 13.6 E 35 56 19 30 1016.5 1016.5 0.0
27/09:00am 26.2 18.6 -2.4 15 12.7 E 28 35 15 19 1016.5 1016.5 0.0
27/08:59am 26.1 18.5 -2.5 15 12.7 E 28 35 15 19 1016.5 1016.5 0.0
27/08:30am 22.8 19.4 -0.6 21 10.4 ESE 7 11 4 6 1016.3 1016.3 0.0
27/08:00am 18.6 15.4 0.7 30 7.9 ESE 7 9 4 5 1016.0 1016.0 0.0
27/07:30am 14.3 10.9 -0.6 36 6.2 ESE 7 9 4 5 1015.6 1015.6 0.0
27/07:00am 13.2 9.8 -0.8 38 5.7 E 7 9 4 5 1015.1 1015.1 0.0
27/06:30am 13.2 9.3 -1.2 37 5.8 ENE 9 11 5 6 1014.8 1014.8 0.0
27/06:00am 13.0 9.5 -1.7 36 5.9 E 7 9 4 5 1014.5 1014.5 0.0
27/05:30am 14.5 10.8 0.0 37 6.1 ENE 9 11 5 6 1014.2 1014.2 0.0
27/05:00am 13.7 10.0 0.0 39 5.7 ENE 9 11 5 6 1014.1 1014.1 0.0
27/04:30am 13.6 9.7 -1.2 36 6.0 ENE 9 11 5 6 1014.1 1014.1 0.0
27/04:00am 15.2 11.4 -0.5 34 6.6 ENE 9 11 5 6 1014.1 1014.1 0.0
27/03:30am 16.0 12.2 -0.7 32 7.0 ENE 9 9 5 5 1014.2 1014.2 0.0
27/03:00am 16.3 12.8 -1.3 30 7.3 E 7 9 4 5 1014.3 1014.3 0.0
27/02:30am 17.6 13.3 -1.6 27 8.0 E 11 11 6 6 1014.4 1014.4 0.0
27/02:00am 16.7 13.2 -1.4 29 7.5 E 7 9 4 5 1014.4 1014.4 0.0
27/01:30am 16.9 13.0 -1.2 29 7.6 NE 9 11 5 6 1014.5 1014.5 0.0
27/01:00am 16.1 13.9 -1.9 29 7.4 CALM 0 0 0 0 1014.6 1014.6 0.0

Other Formats:

Comma delimited format used in spreadsheet applications
http://www.bom.gov.au/fwo/IDD60801/IDD60801.95214.axf

JavaScript Object Notation format (JSON) in row-major order
http://www.bom.gov.au/fwo/IDD60801/IDD60801.95214.json